Time;durP1;ratioP1;P1;durP2;ratioP2;P2;SDS_P1;SDS_P2;PMS_P1;PMS_P2;Temp;Humidity;BMP_temperature;BMP_pressure;BME280_temperature;BME280_humidity;BME280_pressure;Samples;Min_cycle;Max_cycle;Signal;HPM_P1;HPM_P2
2022/11/06 00:00:31;;;;;;;13.73;8.80;;;;;;;;;;5071786;28;20173;-81
2022/11/06 00:02:58;;;;;;;20.40;11.53;;;;;;;;;;5037967;28;20204;-81
2022/11/06 00:08:10;;;;;;;21.63;11.13;;;;;;;;;;5091206;28;20188;-81
2022/11/06 00:10:36;;;;;;;26.20;13.40;;;;;;;;;;5088286;28;20196;-81
2022/11/06 00:13:02;;;;;;;21.73;10.77;;;;;;;;;;5065990;28;20187;-80
2022/11/06 00:15:28;;;;;;;15.97;9.20;;;;;;;;;;5090361;28;20204;-80
2022/11/06 00:17:54;;;;;;;12.30;7.60;;;;;;;;;;5091114;28;20176;-81
2022/11/06 00:20:21;;;;;;;9.37;6.50;;;;;;;;;;5039822;28;20197;-80
2022/11/06 00:22:47;;;;;;;8.07;5.93;;;;;;;;;;5053830;28;20176;-80
2022/11/06 00:25:13;;;;;;;10.37;5.80;;;;;;;;;;5073494;28;20593;-81
2022/11/06 00:27:41;;;;;;;13.07;5.90;;;;;;;;;;5093012;28;20209;-79
2022/11/06 00:30:08;;;;;;;6.93;4.93;;;;;;;;;;5075252;28;20263;-79
2022/11/06 00:32:34;;;;;;;6.70;5.33;;;;;;;;;;5060157;28;20174;-79
2022/11/06 00:35:01;;;;;;;9.67;6.07;;;;;;;;;;5078525;28;20304;-79
2022/11/06 00:37:27;;;;;;;9.53;6.17;;;;;;;;;;5067787;28;20184;-78
2022/11/06 00:39:53;;;;;;;6.67;5.47;;;;;;;;;;5061201;28;20228;-80
2022/11/06 00:42:20;;;;;;;8.57;5.97;;;;;;;;;;5069132;28;20181;-76
2022/11/06 00:44:46;;;;;;;8.67;5.77;;;;;;;;;;5067346;28;20210;-81
2022/11/06 00:47:12;;;;;;;6.57;5.17;;;;;;;;;;5069342;28;20235;-80
2022/11/06 00:49:38;;;;;;;11.17;6.90;;;;;;;;;;5087261;28;20652;-81
2022/11/06 00:52:04;;;;;;;8.73;6.63;;;;;;;;;;5056489;28;20185;-81
2022/11/06 00:54:30;;;;;;;10.13;7.10;;;;;;;;;;5056862;28;20216;-80
2022/11/06 00:56:56;;;;;;;8.73;6.20;;;;;;;;;;5032436;28;20204;-81
2022/11/06 00:59:23;;;;;;;9.03;6.70;;;;;;;;;;5079543;28;20287;-81
2022/11/06 01:01:49;;;;;;;7.80;6.47;;;;;;;;;;5050106;28;20822;-81
2022/11/06 01:04:22;;;;;;;8.90;6.53;;;;;;;;;;5039847;28;20204;-81
2022/11/06 01:06:49;;;;;;;9.63;6.27;;;;;;;;;;5054591;28;20883;-80
2022/11/06 01:09:17;;;;;;;11.13;6.67;;;;;;;;;;5033662;28;20240;-81
2022/11/06 01:11:44;;;;;;;8.97;5.87;;;;;;;;;;5055891;28;20187;-81
2022/11/06 01:14:12;;;;;;;7.57;6.03;;;;;;;;;;5059473;28;20205;-80
2022/11/06 01:16:38;;;;;;;9.63;6.07;;;;;;;;;;5046256;28;20190;-80
2022/11/06 01:19:04;;;;;;;7.27;5.80;;;;;;;;;;5042745;28;20193;-81
2022/11/06 01:21:35;;;;;;;8.97;6.07;;;;;;;;;;5054103;28;20184;-81
2022/11/06 01:24:02;;;;;;;8.57;5.67;;;;;;;;;;5072272;28;20663;-81
2022/11/06 01:26:29;;;;;;;9.43;6.27;;;;;;;;;;5047126;28;20258;-80
2022/11/06 01:28:56;;;;;;;8.40;5.93;;;;;;;;;;5072790;28;20821;-81
2022/11/06 01:31:24;;;;;;;12.43;6.07;;;;;;;;;;5056833;28;20180;-81
2022/11/06 01:33:50;;;;;;;9.77;6.13;;;;;;;;;;5068401;28;20217;-80
2022/11/06 01:36:18;;;;;;;9.23;6.83;;;;;;;;;;5042752;28;20219;-80
2022/11/06 01:38:46;;;;;;;9.90;6.70;;;;;;;;;;5055913;28;21196;-81
2022/11/06 01:41:16;;;;;;;8.70;6.10;;;;;;;;;;5063356;28;20185;-81
2022/11/06 01:43:53;;;;;;;8.33;6.33;;;;;;;;;;5046755;28;20596;-81
2022/11/06 01:46:20;;;;;;;11.53;6.67;;;;;;;;;;5070135;28;20803;-81
2022/11/06 01:48:53;;;;;;;10.47;7.60;;;;;;;;;;5089840;28;20672;-80
2022/11/06 01:51:21;;;;;;;8.57;6.60;;;;;;;;;;5075389;28;20190;-81
2022/11/06 01:53:47;;;;;;;9.80;6.97;;;;;;;;;;5084221;28;20204;-81
2022/11/06 01:56:14;;;;;;;10.03;6.73;;;;;;;;;;5073825;28;20177;-80
2022/11/06 01:58:42;;;;;;;9.80;7.20;;;;;;;;;;5082603;28;20702;-80
2022/11/06 02:01:11;;;;;;;9.23;7.20;;;;;;;;;;5048109;28;20196;-80
2022/11/06 02:03:39;;;;;;;10.20;7.00;;;;;;;;;;5073605;28;20182;-81
2022/11/06 02:06:07;;;;;;;11.27;7.17;;;;;;;;;;5082242;28;20196;-81
2022/11/06 02:08:33;;;;;;;10.70;6.70;;;;;;;;;;5071107;28;20276;-81
2022/11/06 02:10:59;;;;;;;8.43;6.30;;;;;;;;;;5065089;28;20652;-80
2022/11/06 02:13:37;;;;;;;11.00;6.73;;;;;;;;;;5074124;28;20173;-81
2022/11/06 02:16:26;;;;;;;9.93;6.70;;;;;;;;;;5055845;28;20176;-80
2022/11/06 02:19:01;;;;;;;8.33;6.17;;;;;;;;;;5069900;28;20235;-80
2022/11/06 02:21:47;;;;;;;7.93;5.93;;;;;;;;;;5069964;28;20180;-81
2022/11/06 02:24:17;;;;;;;10.13;6.30;;;;;;;;;;5054237;28;20204;-80
2022/11/06 02:27:01;;;;;;;8.90;5.80;;;;;;;;;;5055621;28;20204;-81
2022/11/06 02:29:35;;;;;;;9.90;6.10;;;;;;;;;;5082324;28;20179;-81
2022/11/06 02:32:06;;;;;;;7.17;5.40;;;;;;;;;;5049868;28;20188;-81
2022/11/06 02:34:33;;;;;;;9.90;6.00;;;;;;;;;;5058643;28;20216;-80
2022/11/06 02:37:07;;;;;;;7.40;5.73;;;;;;;;;;5067099;28;20185;-81
2022/11/06 02:39:34;;;;;;;11.63;6.07;;;;;;;;;;5070400;28;20190;-81
2022/11/06 02:42:01;;;;;;;8.90;6.03;;;;;;;;;;5064237;28;20276;-81
2022/11/06 02:44:28;;;;;;;9.60;6.10;;;;;;;;;;5039828;28;20217;-81
2022/11/06 02:47:01;;;;;;;11.70;6.60;;;;;;;;;;5060349;28;20209;-81
2022/11/06 02:49:37;;;;;;;10.30;6.53;;;;;;;;;;5091854;28;20173;-80
2022/11/06 02:52:06;;;;;;;6.57;5.60;;;;;;;;;;5068951;28;20238;-80
2022/11/06 02:54:35;;;;;;;9.13;5.40;;;;;;;;;;5067825;28;20193;-80
2022/11/06 02:57:08;;;;;;;8.03;5.67;;;;;;;;;;5077434;28;20188;-81
2022/11/06 02:59:40;;;;;;;11.03;5.23;;;;;;;;;;5085169;28;20176;-80
2022/11/06 03:02:08;;;;;;;12.53;6.00;;;;;;;;;;5045061;28;20252;-80
2022/11/06 03:04:47;;;;;;;7.03;5.20;;;;;;;;;;5052828;28;20657;-80
2022/11/06 03:07:19;;;;;;;8.33;5.50;;;;;;;;;;5085431;28;20244;-80
2022/11/06 03:09:46;;;;;;;8.73;5.83;;;;;;;;;;5071846;28;20246;-80
2022/11/06 03:12:25;;;;;;;10.93;5.57;;;;;;;;;;5053660;28;20257;-80
2022/11/06 03:14:51;;;;;;;9.13;5.37;;;;;;;;;;5074164;28;20197;-80
2022/11/06 03:17:20;;;;;;;10.13;5.77;;;;;;;;;;5053733;28;20854;-80
2022/11/06 03:19:49;;;;;;;9.10;5.37;;;;;;;;;;5058742;28;20760;-80
2022/11/06 03:22:24;;;;;;;6.13;4.63;;;;;;;;;;5053317;28;20189;-81
2022/11/06 03:25:10;;;;;;;9.83;5.67;;;;;;;;;;5078277;28;20200;-81
2022/11/06 03:27:38;;;;;;;6.50;5.60;;;;;;;;;;5036243;28;20369;-80
2022/11/06 03:30:06;;;;;;;10.47;5.83;;;;;;;;;;5071627;28;20177;-80
2022/11/06 03:32:38;;;;;;;8.00;5.47;;;;;;;;;;5064029;28;20199;-80
2022/11/06 03:35:07;;;;;;;6.90;5.13;;;;;;;;;;5072282;28;20268;-80
2022/11/06 03:37:39;;;;;;;7.77;5.50;;;;;;;;;;5067710;28;20837;-81
2022/11/06 03:40:08;;;;;;;8.30;5.40;;;;;;;;;;5058401;28;20184;-80
2022/11/06 03:42:36;;;;;;;7.40;5.67;;;;;;;;;;5069738;28;20276;-81
2022/11/06 03:45:05;;;;;;;6.93;5.30;;;;;;;;;;5064493;28;20212;-80
2022/11/06 03:47:51;;;;;;;8.17;5.57;;;;;;;;;;5035579;28;20970;-80
2022/11/06 03:50:23;;;;;;;9.43;5.20;;;;;;;;;;5057118;28;20189;-81
2022/11/06 03:52:57;;;;;;;6.63;5.43;;;;;;;;;;5072200;28;20164;-80
2022/11/06 03:55:35;;;;;;;10.07;5.83;;;;;;;;;;5063736;28;20210;-81
2022/11/06 03:58:06;;;;;;;7.63;6.13;;;;;;;;;;5056296;28;20189;-80
2022/11/06 04:00:34;;;;;;;12.17;6.33;;;;;;;;;;5069128;28;20181;-80
2022/11/06 04:03:05;;;;;;;7.00;5.80;;;;;;;;;;5067782;28;20279;-81
2022/11/06 04:05:34;;;;;;;9.53;5.67;;;;;;;;;;5077730;28;20569;-81
2022/11/06 04:16:18;;;;;;;5.90;5.10;;;;;;;;;;5050685;28;20208;-80
2022/11/06 04:18:44;;;;;;;7.70;5.87;;;;;;;;;;5037807;28;20705;-80
2022/11/06 04:21:26;;;;;;;8.23;5.83;;;;;;;;;;5078108;28;20200;-81
2022/11/06 04:26:52;;;;;;;7.53;5.10;;;;;;;;;;5069230;28;20299;-80
2022/11/06 04:29:26;;;;;;;10.40;5.90;;;;;;;;;;5058379;28;20196;-81
2022/11/06 04:31:58;;;;;;;7.37;5.77;;;;;;;;;;5050217;28;20596;-80
2022/11/06 04:34:47;;;;;;;8.00;5.60;;;;;;;;;;5057843;28;20212;-80
2022/11/06 04:37:21;;;;;;;8.67;6.00;;;;;;;;;;5078611;28;20203;-80
2022/11/06 04:39:53;;;;;;;8.73;5.73;;;;;;;;;;5061527;28;20211;-81
2022/11/06 04:42:33;;;;;;;9.03;5.93;;;;;;;;;;5071386;28;20188;-80
2022/11/06 04:45:06;;;;;;;9.10;5.37;;;;;;;;;;5049443;28;20731;-80
2022/11/06 04:47:33;;;;;;;8.90;6.40;;;;;;;;;;5059782;28;20265;-80
2022/11/06 04:50:00;;;;;;;7.57;5.77;;;;;;;;;;5030183;28;20190;-81
2022/11/06 04:52:27;;;;;;;9.07;6.47;;;;;;;;;;5073224;28;20224;-80
2022/11/06 04:54:55;;;;;;;8.70;6.70;;;;;;;;;;5075540;28;20200;-81
2022/11/06 04:57:25;;;;;;;8.67;6.13;;;;;;;;;;5071306;28;20284;-81
2022/11/06 04:59:51;;;;;;;7.73;6.10;;;;;;;;;;5042356;28;20776;-80
2022/11/06 05:02:17;;;;;;;8.97;6.23;;;;;;;;;;5040025;28;20330;-80
2022/11/06 05:04:52;;;;;;;9.93;6.37;;;;;;;;;;5077310;28;20199;-80
2022/11/06 05:07:18;;;;;;;11.67;6.40;;;;;;;;;;5039934;28;20760;-81
2022/11/06 05:09:44;;;;;;;10.33;6.40;;;;;;;;;;5050274;28;20252;-80
2022/11/06 05:12:10;;;;;;;10.17;6.20;;;;;;;;;;5071066;28;20260;-80
2022/11/06 05:14:37;;;;;;;11.83;6.00;;;;;;;;;;5077352;28;20273;-81
2022/11/06 05:17:03;;;;;;;8.23;6.20;;;;;;;;;;5068776;28;20185;-81
2022/11/06 05:19:29;;;;;;;6.83;5.43;;;;;;;;;;5036934;28;20181;-80
2022/11/06 05:24:40;;;;;;;8.03;6.10;;;;;;;;;;5072800;28;20212;-80
2022/11/06 05:27:06;;;;;;;8.57;6.77;;;;;;;;;;5049464;28;20355;-80
2022/11/06 05:29:32;;;;;;;10.50;7.50;;;;;;;;;;5078167;28;20176;-80
2022/11/06 05:31:58;;;;;;;7.80;6.73;;;;;;;;;;5070597;28;20188;-80
2022/11/06 05:34:24;;;;;;;9.70;6.60;;;;;;;;;;5073193;28;20208;-80
2022/11/06 05:36:50;;;;;;;9.07;6.73;;;;;;;;;;5035851;28;20189;-80
2022/11/06 05:39:16;;;;;;;8.50;7.27;;;;;;;;;;5072043;28;20181;-80
2022/11/06 05:41:43;;;;;;;8.23;6.87;;;;;;;;;;5069982;28;20242;-80
2022/11/06 05:44:09;;;;;;;7.57;6.43;;;;;;;;;;5070162;28;20319;-80
2022/11/06 05:46:35;;;;;;;10.00;6.43;;;;;;;;;;5071982;28;20239;-80
2022/11/06 05:49:01;;;;;;;9.53;6.10;;;;;;;;;;5058191;28;20189;-80
2022/11/06 05:51:27;;;;;;;8.83;6.03;;;;;;;;;;5076091;28;20632;-80
2022/11/06 05:53:54;;;;;;;8.60;6.07;;;;;;;;;;5069684;28;20257;-80
2022/11/06 05:56:20;;;;;;;8.13;6.10;;;;;;;;;;5066517;28;20573;-81
2022/11/06 05:58:46;;;;;;;10.07;6.93;;;;;;;;;;5051326;28;20191;-80
2022/11/06 06:01:13;;;;;;;9.50;6.70;;;;;;;;;;5069203;28;20200;-80
2022/11/06 06:03:39;;;;;;;7.53;6.40;;;;;;;;;;5070542;28;20672;-80
2022/11/06 06:06:05;;;;;;;8.17;6.40;;;;;;;;;;5068155;28;20250;-80
2022/11/06 06:08:31;;;;;;;6.97;6.27;;;;;;;;;;5052472;28;20276;-80
2022/11/06 06:10:57;;;;;;;8.93;7.07;;;;;;;;;;5035102;28;20181;-80
2022/11/06 06:13:23;;;;;;;9.90;6.50;;;;;;;;;;5063550;28;20586;-80
2022/11/06 06:15:50;;;;;;;9.80;7.03;;;;;;;;;;5069551;28;20277;-80
2022/11/06 06:18:16;;;;;;;8.43;7.00;;;;;;;;;;5078034;28;20183;-81
2022/11/06 06:20:42;;;;;;;7.90;6.57;;;;;;;;;;5057978;28;20193;-80
2022/11/06 06:23:09;;;;;;;7.53;6.30;;;;;;;;;;5079509;28;20187;-80
2022/11/06 06:25:35;;;;;;;6.80;6.03;;;;;;;;;;5069601;28;20733;-81
2022/11/06 06:28:01;;;;;;;8.67;6.43;;;;;;;;;;5073175;28;20191;-80
2022/11/06 06:30:27;;;;;;;7.83;6.40;;;;;;;;;;5054096;28;20181;-80
2022/11/06 06:32:54;;;;;;;9.73;6.43;;;;;;;;;;5079507;28;20323;-80
2022/11/06 06:35:20;;;;;;;8.00;5.77;;;;;;;;;;5072981;28;20287;-80
2022/11/06 06:37:51;;;;;;;8.40;6.37;;;;;;;;;;5071103;28;20545;-81
2022/11/06 06:40:17;;;;;;;9.70;7.37;;;;;;;;;;5072014;28;20298;-81
2022/11/06 06:42:43;;;;;;;11.17;6.77;;;;;;;;;;5076558;28;20613;-81
2022/11/06 06:45:09;;;;;;;9.17;6.00;;;;;;;;;;5075126;28;20255;-79
2022/11/06 06:47:35;;;;;;;8.47;5.50;;;;;;;;;;5059956;28;20266;-74
2022/11/06 06:50:02;;;;;;;7.97;5.63;;;;;;;;;;5067615;28;20192;-75
2022/11/06 06:52:28;;;;;;;8.00;6.07;;;;;;;;;;5071007;28;20157;-75
2022/11/06 06:54:54;;;;;;;8.50;5.43;;;;;;;;;;5067313;28;20193;-75
2022/11/06 06:57:20;;;;;;;7.20;4.83;;;;;;;;;;5078344;28;20828;-75
2022/11/06 06:59:46;;;;;;;6.93;4.80;;;;;;;;;;5068132;28;20719;-73
2022/11/06 07:02:12;;;;;;;8.97;4.67;;;;;;;;;;5068753;28;20178;-74
2022/11/06 07:04:38;;;;;;;5.63;5.00;;;;;;;;;;5074698;28;20201;-74
2022/11/06 07:07:04;;;;;;;8.47;5.23;;;;;;;;;;5067813;28;20205;-74
2022/11/06 07:09:31;;;;;;;6.13;4.97;;;;;;;;;;5072053;28;20181;-74
2022/11/06 07:11:57;;;;;;;8.40;6.20;;;;;;;;;;5066450;28;20180;-74
2022/11/06 07:14:23;;;;;;;6.97;5.13;;;;;;;;;;5070237;28;20220;-74
2022/11/06 07:16:50;;;;;;;6.57;4.30;;;;;;;;;;5071175;28;20199;-74
2022/11/06 07:19:16;;;;;;;6.63;4.50;;;;;;;;;;5070539;28;20384;-74
2022/11/06 07:21:42;;;;;;;6.00;4.20;;;;;;;;;;5077780;28;20272;-74
2022/11/06 07:24:08;;;;;;;10.13;5.30;;;;;;;;;;5068389;28;20713;-74
2022/11/06 07:26:34;;;;;;;5.83;4.53;;;;;;;;;;5074685;28;20197;-74
2022/11/06 07:29:00;;;;;;;7.07;4.97;;;;;;;;;;5051223;28;20178;-74
2022/11/06 07:31:27;;;;;;;9.30;5.40;;;;;;;;;;5067202;28;20180;-74
2022/11/06 07:33:53;;;;;;;7.03;4.93;;;;;;;;;;5071692;28;20706;-79
2022/11/06 07:36:19;;;;;;;5.33;4.60;;;;;;;;;;5067057;28;20203;-76
2022/11/06 07:38:45;;;;;;;7.70;5.00;;;;;;;;;;5073062;28;20165;-74
2022/11/06 07:41:13;;;;;;;6.47;4.87;;;;;;;;;;5067574;28;20181;-76
2022/11/06 07:43:39;;;;;;;7.60;5.40;;;;;;;;;;5066557;28;20177;-75
2022/11/06 07:46:07;;;;;;;6.33;5.17;;;;;;;;;;5082658;28;20915;-78
2022/11/06 07:48:33;;;;;;;8.70;5.30;;;;;;;;;;5074226;28;20212;-77
2022/11/06 07:51:04;;;;;;;5.03;4.40;;;;;;;;;;5081600;28;20184;-77
2022/11/06 07:53:30;;;;;;;10.57;5.23;;;;;;;;;;5086905;28;20157;-80
2022/11/06 07:55:56;;;;;;;6.23;4.77;;;;;;;;;;5049908;28;20181;-79
2022/11/06 07:58:23;;;;;;;6.13;4.50;;;;;;;;;;5070153;28;20936;-77
2022/11/06 08:00:51;;;;;;;6.00;4.03;;;;;;;;;;5071118;28;20183;-78
2022/11/06 08:03:17;;;;;;;6.17;4.30;;;;;;;;;;5069273;28;20173;-79
2022/11/06 08:05:43;;;;;;;6.47;4.90;;;;;;;;;;5050717;28;20281;-77
2022/11/06 08:08:09;;;;;;;5.87;4.70;;;;;;;;;;5076999;28;20165;-81
2022/11/06 08:10:39;;;;;;;6.53;5.00;;;;;;;;;;5064513;28;20188;-81
2022/11/06 08:13:09;;;;;;;5.53;4.40;;;;;;;;;;5082739;28;20181;-81
2022/11/06 08:15:37;;;;;;;5.73;5.00;;;;;;;;;;5082457;28;20216;-81
2022/11/06 08:18:03;;;;;;;4.50;3.97;;;;;;;;;;5082265;28;20199;-81
2022/11/06 08:20:30;;;;;;;5.20;4.23;;;;;;;;;;5085787;28;20177;-81
2022/11/06 08:23:00;;;;;;;5.33;4.60;;;;;;;;;;5075448;28;20191;-80
2022/11/06 08:25:28;;;;;;;8.30;4.87;;;;;;;;;;5075364;28;20222;-80
2022/11/06 08:27:55;;;;;;;5.33;4.60;;;;;;;;;;5078252;28;20597;-81
2022/11/06 08:30:21;;;;;;;8.40;5.33;;;;;;;;;;5086575;28;20181;-77
2022/11/06 08:32:47;;;;;;;6.30;5.33;;;;;;;;;;5061479;28;20273;-80
2022/11/06 08:35:14;;;;;;;9.47;5.33;;;;;;;;;;5072042;28;20216;-80
2022/11/06 08:37:40;;;;;;;6.90;5.60;;;;;;;;;;5040592;28;20193;-80
2022/11/06 08:40:06;;;;;;;8.87;6.60;;;;;;;;;;5036476;28;20181;-79
2022/11/06 08:42:32;;;;;;;8.23;6.00;;;;;;;;;;5057959;28;20811;-79
2022/11/06 08:44:59;;;;;;;6.80;5.43;;;;;;;;;;5071679;28;20226;-79
2022/11/06 08:47:25;;;;;;;8.57;6.00;;;;;;;;;;5064902;28;20217;-79
2022/11/06 08:49:51;;;;;;;7.93;6.50;;;;;;;;;;5067694;28;20307;-79
2022/11/06 08:52:17;;;;;;;9.63;7.33;;;;;;;;;;5068175;28;20340;-79
2022/11/06 08:54:43;;;;;;;9.80;7.03;;;;;;;;;;5065572;28;20288;-79
2022/11/06 08:57:09;;;;;;;8.83;7.10;;;;;;;;;;5039370;28;20235;-79
2022/11/06 08:59:36;;;;;;;8.90;7.63;;;;;;;;;;5060213;28;20193;-79
2022/11/06 09:02:02;;;;;;;8.37;6.83;;;;;;;;;;5065857;28;20640;-79
2022/11/06 09:04:28;;;;;;;8.43;6.80;;;;;;;;;;5064185;28;20209;-79
2022/11/06 09:06:56;;;;;;;10.10;7.20;;;;;;;;;;5036283;28;20209;-81
2022/11/06 09:09:22;;;;;;;11.93;8.03;;;;;;;;;;5077917;28;20185;-78
2022/11/06 09:11:49;;;;;;;9.63;7.90;;;;;;;;;;5059592;28;20591;-77
2022/11/06 09:14:15;;;;;;;11.03;7.93;;;;;;;;;;5070946;28;20565;-78
2022/11/06 09:16:41;;;;;;;14.37;8.83;;;;;;;;;;5055311;28;20335;-78
2022/11/06 09:19:07;;;;;;;12.20;8.73;;;;;;;;;;5061092;28;20610;-77
2022/11/06 09:21:34;;;;;;;11.90;9.13;;;;;;;;;;5060482;28;20266;-78
2022/11/06 09:24:00;;;;;;;14.50;10.00;;;;;;;;;;5078408;28;20208;-77
2022/11/06 09:26:26;;;;;;;12.97;9.50;;;;;;;;;;5079249;28;20196;-78
2022/11/06 09:28:52;;;;;;;10.73;8.67;;;;;;;;;;5061018;28;20256;-77
2022/11/06 09:31:19;;;;;;;11.70;8.40;;;;;;;;;;5068037;28;20542;-78
2022/11/06 09:33:45;;;;;;;11.27;8.27;;;;;;;;;;5068744;28;20205;-78
2022/11/06 09:36:11;;;;;;;11.07;8.57;;;;;;;;;;5073041;28;20317;-78
2022/11/06 09:38:38;;;;;;;11.30;8.53;;;;;;;;;;5067552;28;20620;-77
2022/11/06 09:41:04;;;;;;;10.00;8.10;;;;;;;;;;5066059;28;20205;-77
2022/11/06 09:43:49;;;;;;;10.93;8.67;;;;;;;;;;5078437;28;20906;-78
2022/11/06 09:46:23;;;;;;;12.47;8.70;;;;;;;;;;5063220;28;20672;-78
2022/11/06 09:49:12;;;;;;;11.10;7.50;;;;;;;;;;5067477;28;20173;-78
2022/11/06 09:51:41;;;;;;;11.37;8.10;;;;;;;;;;5054771;28;20242;-78
2022/11/06 09:54:26;;;;;;;10.53;8.63;;;;;;;;;;5071820;28;20654;-78
2022/11/06 09:56:54;;;;;;;12.33;7.97;;;;;;;;;;5078065;28;20188;-78
2022/11/06 09:59:21;;;;;;;9.53;7.50;;;;;;;;;;5071265;28;20669;-78
2022/11/06 10:01:50;;;;;;;11.03;8.60;;;;;;;;;;5072982;28;20208;-78
2022/11/06 10:04:22;;;;;;;10.57;7.80;;;;;;;;;;5091545;28;20753;-78
2022/11/06 10:06:48;;;;;;;8.37;7.10;;;;;;;;;;5084725;28;20746;-78
2022/11/06 10:09:16;;;;;;;10.27;7.63;;;;;;;;;;5069728;28;20248;-78
2022/11/06 10:11:51;;;;;;;10.40;7.93;;;;;;;;;;5070819;28;20269;-78
2022/11/06 10:14:23;;;;;;;8.10;6.63;;;;;;;;;;5071154;28;20287;-78
2022/11/06 10:17:08;;;;;;;7.70;5.90;;;;;;;;;;5078179;28;20221;-78
2022/11/06 10:19:40;;;;;;;7.27;5.10;;;;;;;;;;5069735;28;20184;-78
2022/11/06 10:22:16;;;;;;;6.13;5.00;;;;;;;;;;5073579;28;20215;-78
2022/11/06 10:25:03;;;;;;;7.40;5.33;;;;;;;;;;5080214;28;20219;-77
2022/11/06 10:27:37;;;;;;;7.53;4.80;;;;;;;;;;5087083;28;20295;-78
2022/11/06 10:30:08;;;;;;;4.47;4.07;;;;;;;;;;5087802;28;20199;-78
2022/11/06 10:32:35;;;;;;;5.90;4.77;;;;;;;;;;5068849;28;20276;-78
2022/11/06 10:35:11;;;;;;;4.90;4.37;;;;;;;;;;5076071;28;20262;-78
2022/11/06 10:37:41;;;;;;;5.93;4.47;;;;;;;;;;5071189;28;20710;-78
2022/11/06 10:40:14;;;;;;;5.23;3.93;;;;;;;;;;5070788;28;20173;-78
2022/11/06 10:42:41;;;;;;;6.33;4.60;;;;;;;;;;5079537;28;20209;-78
2022/11/06 10:45:14;;;;;;;6.53;4.00;;;;;;;;;;5077442;28;20209;-78
2022/11/06 10:47:44;;;;;;;4.63;3.83;;;;;;;;;;5075350;28;20235;-79
2022/11/06 10:50:12;;;;;;;5.77;4.07;;;;;;;;;;5052741;28;20173;-78
2022/11/06 10:52:45;;;;;;;5.50;3.80;;;;;;;;;;5070656;28;20174;-78
2022/11/06 10:55:30;;;;;;;5.23;3.93;;;;;;;;;;5069652;28;20208;-78
2022/11/06 10:57:59;;;;;;;4.90;3.93;;;;;;;;;;5078026;28;20409;-78
2022/11/06 11:00:25;;;;;;;5.20;4.00;;;;;;;;;;5064317;28;20176;-78
2022/11/06 11:03:02;;;;;;;4.53;4.13;;;;;;;;;;5075335;28;20637;-78
2022/11/06 11:05:36;;;;;;;4.93;4.20;;;;;;;;;;5070569;28;20250;-78
2022/11/06 11:08:03;;;;;;;6.30;4.27;;;;;;;;;;5068457;28;20215;-78
2022/11/06 11:10:31;;;;;;;6.90;6.17;;;;;;;;;;5070201;28;20173;-79
2022/11/06 11:12:59;;;;;;;5.73;5.03;;;;;;;;;;5066123;28;20181;-78
2022/11/06 11:15:30;;;;;;;5.93;4.47;;;;;;;;;;5070510;28;20192;-78
2022/11/06 11:18:15;;;;;;;5.77;4.40;;;;;;;;;;5070173;28;20920;-78
2022/11/06 11:20:42;;;;;;;5.67;4.20;;;;;;;;;;5068332;28;20558;-78
2022/11/06 11:23:17;;;;;;;3.90;3.50;;;;;;;;;;5050750;28;20177;-78
2022/11/06 11:25:44;;;;;;;6.87;5.60;;;;;;;;;;5061522;28;20205;-78
2022/11/06 11:28:21;;;;;;;8.37;4.70;;;;;;;;;;5066740;28;20216;-78
2022/11/06 11:30:51;;;;;;;5.67;4.83;;;;;;;;;;5073165;28;20189;-78
2022/11/06 11:33:19;;;;;;;6.63;5.93;;;;;;;;;;5071970;28;20250;-78
2022/11/06 11:35:48;;;;;;;6.37;5.03;;;;;;;;;;5064927;28;20203;-78
2022/11/06 11:38:18;;;;;;;5.93;4.70;;;;;;;;;;5073115;28;20177;-77
2022/11/06 11:40:45;;;;;;;5.37;4.40;;;;;;;;;;5074549;28;20181;-78
2022/11/06 11:43:22;;;;;;;5.63;4.50;;;;;;;;;;5069465;28;20197;-78
2022/11/06 11:46:01;;;;;;;5.40;3.63;;;;;;;;;;5065991;28;20209;-79
2022/11/06 11:48:40;;;;;;;4.20;3.73;;;;;;;;;;5082964;28;20187;-78
2022/11/06 11:51:20;;;;;;;4.00;3.40;;;;;;;;;;5074764;28;20188;-79
2022/11/06 11:53:46;;;;;;;4.63;4.13;;;;;;;;;;5072379;28;20209;-78
2022/11/06 11:56:17;;;;;;;5.23;3.70;;;;;;;;;;5037811;28;20208;-78
2022/11/06 11:58:54;;;;;;;4.23;3.70;;;;;;;;;;5072661;28;20646;-79
2022/11/06 12:01:32;;;;;;;5.23;4.50;;;;;;;;;;5068793;28;20181;-79
2022/11/06 12:03:59;;;;;;;6.13;5.23;;;;;;;;;;5072284;28;20197;-79
2022/11/06 12:06:25;;;;;;;4.10;3.70;;;;;;;;;;5069050;28;20284;-79
2022/11/06 12:08:53;;;;;;;4.40;3.57;;;;;;;;;;5068784;28;20253;-79
2022/11/06 12:11:21;;;;;;;3.90;3.50;;;;;;;;;;5061096;28;20177;-79
2022/11/06 12:14:07;;;;;;;3.60;3.23;;;;;;;;;;5079177;28;20863;-79
2022/11/06 12:16:33;;;;;;;3.80;3.03;;;;;;;;;;5073652;28;20267;-79
2022/11/06 12:19:00;;;;;;;3.90;3.10;;;;;;;;;;5073322;28;20176;-79
2022/11/06 12:21:32;;;;;;;3.10;2.80;;;;;;;;;;5072861;28;20656;-79
2022/11/06 12:24:09;;;;;;;3.47;3.17;;;;;;;;;;5051349;28;20744;-79
2022/11/06 12:26:48;;;;;;;2.70;2.40;;;;;;;;;;5075637;28;20221;-78
2022/11/06 12:29:28;;;;;;;3.40;3.10;;;;;;;;;;5067636;28;20192;-77
2022/11/06 12:32:03;;;;;;;3.97;3.00;;;;;;;;;;5078619;28;20169;-80
2022/11/06 12:34:34;;;;;;;4.00;3.60;;;;;;;;;;5068528;28;20633;-80
2022/11/06 12:37:11;;;;;;;4.47;4.07;;;;;;;;;;5080811;28;20180;-80
2022/11/06 12:39:39;;;;;;;9.13;8.23;;;;;;;;;;5050696;28;20678;-77
2022/11/06 12:42:06;;;;;;;4.23;3.83;;;;;;;;;;5057485;28;20192;-78
2022/11/06 12:44:34;;;;;;;4.57;3.37;;;;;;;;;;5067302;28;20746;-77
2022/11/06 12:47:08;;;;;;;7.67;6.87;;;;;;;;;;5061251;28;20281;-78
2022/11/06 12:49:34;;;;;;;4.83;3.87;;;;;;;;;;5064831;28;20184;-78
2022/11/06 12:52:18;;;;;;;10.43;8.63;;;;;;;;;;5057480;28;20178;-77
2022/11/06 12:54:52;;;;;;;10.80;9.60;;;;;;;;;;5059459;28;20245;-78
2022/11/06 12:57:33;;;;;;;7.20;5.73;;;;;;;;;;5067268;28;20181;-79
2022/11/06 13:00:05;;;;;;;6.80;4.27;;;;;;;;;;5065803;28;20188;-79
2022/11/06 13:02:35;;;;;;;4.33;3.80;;;;;;;;;;5064141;28;20208;-79
2022/11/06 13:05:01;;;;;;;2.90;2.60;;;;;;;;;;5075540;28;20215;-79
2022/11/06 13:07:30;;;;;;;2.57;2.30;;;;;;;;;;5065749;28;20299;-78
2022/11/06 13:10:22;;;;;;;3.30;3.00;;;;;;;;;;5067063;28;20172;-79
2022/11/06 13:13:07;;;;;;;3.57;2.90;;;;;;;;;;5044164;28;20189;-78
2022/11/06 13:15:40;;;;;;;3.47;3.00;;;;;;;;;;5066265;28;20962;-78
2022/11/06 13:18:22;;;;;;;6.03;4.27;;;;;;;;;;5074088;28;20310;-78
2022/11/06 13:20:51;;;;;;;4.90;4.40;;;;;;;;;;5069415;28;20196;-78
2022/11/06 13:23:36;;;;;;;5.30;4.57;;;;;;;;;;5065866;28;20595;-78
2022/11/06 13:26:07;;;;;;;4.17;3.77;;;;;;;;;;5058841;28;20234;-78
2022/11/06 13:28:44;;;;;;;3.17;2.87;;;;;;;;;;5072582;28;20841;-78
2022/11/06 13:31:12;;;;;;;3.40;2.40;;;;;;;;;;5081232;28;20188;-78
2022/11/06 13:33:42;;;;;;;2.47;2.27;;;;;;;;;;5069384;28;20185;-78
2022/11/06 13:36:08;;;;;;;2.40;2.20;;;;;;;;;;5064659;28;20246;-79
2022/11/06 13:38:37;;;;;;;3.67;2.23;;;;;;;;;;5069338;28;20181;-78
2022/11/06 13:41:15;;;;;;;2.87;2.33;;;;;;;;;;5052199;28;20181;-77
2022/11/06 13:43:50;;;;;;;2.83;2.33;;;;;;;;;;5080629;28;20420;-77
2022/11/06 13:46:22;;;;;;;3.27;2.50;;;;;;;;;;5062627;28;20227;-77
2022/11/06 13:48:58;;;;;;;2.83;2.37;;;;;;;;;;5069788;28;20617;-77
2022/11/06 13:51:27;;;;;;;2.90;2.60;;;;;;;;;;5059425;28;20189;-77
2022/11/06 13:53:53;;;;;;;3.20;2.80;;;;;;;;;;5064466;28;20848;-77
2022/11/06 13:56:34;;;;;;;3.37;2.63;;;;;;;;;;5064253;28;20182;-77
2022/11/06 13:59:13;;;;;;;3.50;3.00;;;;;;;;;;5069611;28;20193;-77
2022/11/06 14:01:46;;;;;;;3.43;2.57;;;;;;;;;;5074637;28;20185;-77
2022/11/06 14:04:30;;;;;;;4.67;3.27;;;;;;;;;;5060575;28;20205;-77
2022/11/06 14:07:09;;;;;;;3.33;2.87;;;;;;;;;;5065079;28;20204;-78
2022/11/06 14:09:36;;;;;;;4.03;2.70;;;;;;;;;;5053252;28;20181;-78
2022/11/06 14:12:06;;;;;;;3.77;2.93;;;;;;;;;;5058347;28;20190;-78
2022/11/06 14:14:33;;;;;;;2.60;2.40;;;;;;;;;;5060780;28;20233;-77
2022/11/06 14:17:14;;;;;;;3.27;2.77;;;;;;;;;;5068525;28;20178;-77
2022/11/06 14:20:01;;;;;;;2.70;2.47;;;;;;;;;;5055230;28;20182;-77
2022/11/06 14:22:32;;;;;;;3.67;2.60;;;;;;;;;;5059319;28;20201;-77
2022/11/06 14:24:58;;;;;;;3.70;2.70;;;;;;;;;;5069836;28;20236;-77
2022/11/06 14:27:24;;;;;;;3.53;3.20;;;;;;;;;;5055150;28;20204;-77
2022/11/06 14:29:56;;;;;;;3.70;2.90;;;;;;;;;;5069594;28;20238;-77
2022/11/06 14:32:31;;;;;;;4.27;2.87;;;;;;;;;;5054595;28;20173;-77
2022/11/06 14:34:58;;;;;;;4.33;3.73;;;;;;;;;;5053932;28;20828;-77
2022/11/06 14:37:27;;;;;;;6.63;5.60;;;;;;;;;;5056777;28;20338;-77
2022/11/06 14:39:56;;;;;;;3.83;3.47;;;;;;;;;;5070442;28;20638;-77
2022/11/06 14:42:22;;;;;;;3.10;2.80;;;;;;;;;;5060352;28;20845;-76
2022/11/06 14:44:59;;;;;;;3.90;3.30;;;;;;;;;;5058074;28;20421;-75
2022/11/06 14:47:31;;;;;;;5.10;4.17;;;;;;;;;;5058869;28;20208;-76
2022/11/06 14:50:00;;;;;;;4.30;3.70;;;;;;;;;;5061292;28;20174;-77
2022/11/06 14:52:26;;;;;;;5.53;4.13;;;;;;;;;;5079180;28;20269;-78
2022/11/06 14:54:55;;;;;;;7.73;5.83;;;;;;;;;;5065765;28;20216;-77
2022/11/06 14:57:37;;;;;;;5.53;4.40;;;;;;;;;;5087226;28;20672;-77
2022/11/06 15:00:03;;;;;;;3.77;3.40;;;;;;;;;;5070581;28;20185;-76
2022/11/06 15:02:31;;;;;;;3.17;2.80;;;;;;;;;;5072179;28;20192;-77
2022/11/06 15:05:00;;;;;;;5.10;3.97;;;;;;;;;;5066698;28;20318;-78
2022/11/06 15:07:34;;;;;;;3.23;2.77;;;;;;;;;;5077242;28;20281;-77
2022/11/06 15:10:00;;;;;;;3.10;2.80;;;;;;;;;;5065910;28;20179;-77
2022/11/06 15:12:45;;;;;;;4.33;3.27;;;;;;;;;;5070298;28;20580;-76